sensor_id;sensor_type;location;lat;lon;timestamp;P1;durP1;ratioP1;P2;durP2;ratioP2
2618;SDS011;1319;52.346;13.096;2022-10-15T00:00:25;19.67;;;13.73;;
2618;SDS011;1319;52.346;13.096;2022-10-15T00:02:50;19.13;;;12.90;;
2618;SDS011;1319;52.346;13.096;2022-10-15T00:05:15;20.40;;;14.03;;
2618;SDS011;1319;52.346;13.096;2022-10-15T00:07:40;24.03;;;14.10;;
2618;SDS011;1319;52.346;13.096;2022-10-15T00:10:06;18.27;;;13.93;;
2618;SDS011;1319;52.346;13.096;2022-10-15T00:12:31;23.63;;;14.17;;
2618;SDS011;1319;52.346;13.096;2022-10-15T00:14:56;23.33;;;13.83;;
2618;SDS011;1319;52.346;13.096;2022-10-15T00:17:22;26.07;;;14.23;;
2618;SDS011;1319;52.346;13.096;2022-10-15T00:19:47;21.13;;;14.23;;
2618;SDS011;1319;52.346;13.096;2022-10-15T00:22:12;21.90;;;14.77;;
2618;SDS011;1319;52.346;13.096;2022-10-15T00:24:37;23.70;;;15.57;;
2618;SDS011;1319;52.346;13.096;2022-10-15T00:27:03;20.03;;;13.97;;
2618;SDS011;1319;52.346;13.096;2022-10-15T00:29:28;22.50;;;14.70;;
2618;SDS011;1319;52.346;13.096;2022-10-15T00:31:53;27.87;;;15.43;;
2618;SDS011;1319;52.346;13.096;2022-10-15T00:34:19;23.40;;;15.37;;
2618;SDS011;1319;52.346;13.096;2022-10-15T00:36:44;24.40;;;15.73;;
2618;SDS011;1319;52.346;13.096;2022-10-15T00:39:10;24.80;;;15.70;;
2618;SDS011;1319;52.346;13.096;2022-10-15T00:41:36;24.73;;;16.00;;
2618;SDS011;1319;52.346;13.096;2022-10-15T00:46:48;25.00;;;15.77;;
2618;SDS011;1319;52.346;13.096;2022-10-15T00:51:40;25.30;;;17.23;;
2618;SDS011;1319;52.346;13.096;2022-10-15T00:54:07;28.37;;;17.57;;
2618;SDS011;1319;52.346;13.096;2022-10-15T00:56:32;27.97;;;16.60;;
2618;SDS011;1319;52.346;13.096;2022-10-15T00:58:58;28.30;;;16.87;;
2618;SDS011;1319;52.346;13.096;2022-10-15T01:01:24;25.67;;;17.07;;
2618;SDS011;1319;52.346;13.096;2022-10-15T01:03:50;27.77;;;17.03;;
2618;SDS011;1319;52.346;13.096;2022-10-15T01:06:16;27.90;;;17.27;;
2618;SDS011;1319;52.346;13.096;2022-10-15T01:08:41;31.67;;;17.60;;
2618;SDS011;1319;52.346;13.096;2022-10-15T01:21:57;28.13;;;16.90;;
2618;SDS011;1319;52.346;13.096;2022-10-15T01:29:57;26.27;;;16.47;;
2618;SDS011;1319;52.346;13.096;2022-10-15T01:32:28;36.50;;;18.53;;
2618;SDS011;1319;52.346;13.096;2022-10-15T01:35:20;28.73;;;17.40;;
2618;SDS011;1319;52.346;13.096;2022-10-15T01:37:44;26.50;;;17.17;;
2618;SDS011;1319;52.346;13.096;2022-10-15T01:42:58;30.80;;;17.20;;
2618;SDS011;1319;52.346;13.096;2022-10-15T01:45:34;28.53;;;17.97;;
2618;SDS011;1319;52.346;13.096;2022-10-15T01:48:02;29.70;;;17.60;;
2618;SDS011;1319;52.346;13.096;2022-10-15T01:50:27;27.83;;;17.63;;
2618;SDS011;1319;52.346;13.096;2022-10-15T01:52:54;28.53;;;18.07;;
2618;SDS011;1319;52.346;13.096;2022-10-15T01:55:21;28.83;;;18.00;;
2618;SDS011;1319;52.346;13.096;2022-10-15T01:57:48;32.10;;;17.90;;
2618;SDS011;1319;52.346;13.096;2022-10-15T02:00:14;31.87;;;18.33;;
2618;SDS011;1319;52.346;13.096;2022-10-15T02:02:40;30.60;;;19.30;;
2618;SDS011;1319;52.346;13.096;2022-10-15T02:05:05;32.20;;;17.90;;
2618;SDS011;1319;52.346;13.096;2022-10-15T02:10:01;31.43;;;18.60;;
2618;SDS011;1319;52.346;13.096;2022-10-15T02:15:20;30.60;;;18.37;;
2618;SDS011;1319;52.346;13.096;2022-10-15T02:18:09;27.67;;;17.90;;
2618;SDS011;1319;52.346;13.096;2022-10-15T02:20:39;33.33;;;19.03;;
2618;SDS011;1319;52.346;13.096;2022-10-15T02:23:11;27.03;;;17.97;;
2618;SDS011;1319;52.346;13.096;2022-10-15T02:25:37;32.67;;;17.70;;
2618;SDS011;1319;52.346;13.096;2022-10-15T02:28:04;33.33;;;18.93;;
2618;SDS011;1319;52.346;13.096;2022-10-15T02:30:30;36.00;;;19.13;;
2618;SDS011;1319;52.346;13.096;2022-10-15T02:32:57;29.57;;;18.00;;
2618;SDS011;1319;52.346;13.096;2022-10-15T02:35:22;30.93;;;18.47;;
2618;SDS011;1319;52.346;13.096;2022-10-15T02:37:48;32.23;;;19.63;;
2618;SDS011;1319;52.346;13.096;2022-10-15T02:40:15;32.87;;;18.80;;
2618;SDS011;1319;52.346;13.096;2022-10-15T02:42:41;28.07;;;18.67;;
2618;SDS011;1319;52.346;13.096;2022-10-15T02:45:06;30.57;;;18.60;;
2618;SDS011;1319;52.346;13.096;2022-10-15T02:47:32;29.03;;;18.37;;
2618;SDS011;1319;52.346;13.096;2022-10-15T02:49:57;27.47;;;17.90;;
2618;SDS011;1319;52.346;13.096;2022-10-15T02:52:22;31.23;;;17.77;;
2618;SDS011;1319;52.346;13.096;2022-10-15T02:54:47;35.47;;;18.43;;
2618;SDS011;1319;52.346;13.096;2022-10-15T02:57:12;32.33;;;18.50;;
2618;SDS011;1319;52.346;13.096;2022-10-15T02:59:38;30.10;;;18.30;;
2618;SDS011;1319;52.346;13.096;2022-10-15T03:02:03;28.73;;;17.43;;
2618;SDS011;1319;52.346;13.096;2022-10-15T03:04:28;28.90;;;17.77;;
2618;SDS011;1319;52.346;13.096;2022-10-15T03:06:53;30.77;;;18.53;;
2618;SDS011;1319;52.346;13.096;2022-10-15T03:09:19;31.30;;;18.30;;
2618;SDS011;1319;52.346;13.096;2022-10-15T03:11:44;31.00;;;17.87;;
2618;SDS011;1319;52.346;13.096;2022-10-15T03:14:09;30.90;;;19.17;;
2618;SDS011;1319;52.346;13.096;2022-10-15T03:16:34;32.00;;;18.47;;
2618;SDS011;1319;52.346;13.096;2022-10-15T03:19:00;31.97;;;18.83;;
2618;SDS011;1319;52.346;13.096;2022-10-15T03:21:25;25.87;;;18.07;;
2618;SDS011;1319;52.346;13.096;2022-10-15T03:23:52;30.77;;;18.17;;
2618;SDS011;1319;52.346;13.096;2022-10-15T03:26:17;30.23;;;18.33;;
2618;SDS011;1319;52.346;13.096;2022-10-15T03:28:43;29.53;;;17.80;;
2618;SDS011;1319;52.346;13.096;2022-10-15T03:31:08;26.00;;;17.43;;
2618;SDS011;1319;52.346;13.096;2022-10-15T03:33:33;28.27;;;18.30;;
2618;SDS011;1319;52.346;13.096;2022-10-15T03:35:58;26.70;;;17.33;;
2618;SDS011;1319;52.346;13.096;2022-10-15T03:38:23;25.03;;;17.40;;
2618;SDS011;1319;52.346;13.096;2022-10-15T03:40:49;29.27;;;17.80;;
2618;SDS011;1319;52.346;13.096;2022-10-15T03:43:14;27.13;;;16.57;;
2618;SDS011;1319;52.346;13.096;2022-10-15T03:45:39;27.57;;;16.90;;
2618;SDS011;1319;52.346;13.096;2022-10-15T03:48:04;28.73;;;16.27;;
2618;SDS011;1319;52.346;13.096;2022-10-15T03:50:30;30.23;;;17.27;;
2618;SDS011;1319;52.346;13.096;2022-10-15T03:52:55;29.90;;;17.27;;
2618;SDS011;1319;52.346;13.096;2022-10-15T03:55:20;39.90;;;17.97;;
2618;SDS011;1319;52.346;13.096;2022-10-15T03:57:46;28.57;;;18.20;;
2618;SDS011;1319;52.346;13.096;2022-10-15T04:00:11;32.50;;;17.83;;
2618;SDS011;1319;52.346;13.096;2022-10-15T04:02:37;28.97;;;17.93;;
2618;SDS011;1319;52.346;13.096;2022-10-15T04:05:02;30.57;;;18.07;;
2618;SDS011;1319;52.346;13.096;2022-10-15T04:07:28;27.73;;;16.80;;
2618;SDS011;1319;52.346;13.096;2022-10-15T04:09:53;22.33;;;15.50;;
2618;SDS011;1319;52.346;13.096;2022-10-15T04:12:18;22.20;;;14.90;;
2618;SDS011;1319;52.346;13.096;2022-10-15T04:14:43;21.63;;;13.80;;
2618;SDS011;1319;52.346;13.096;2022-10-15T04:17:09;24.00;;;14.80;;
2618;SDS011;1319;52.346;13.096;2022-10-15T04:19:34;25.30;;;15.93;;
2618;SDS011;1319;52.346;13.096;2022-10-15T04:21:59;26.27;;;15.43;;
2618;SDS011;1319;52.346;13.096;2022-10-15T04:24:24;24.33;;;15.17;;
2618;SDS011;1319;52.346;13.096;2022-10-15T04:26:50;25.87;;;15.27;;
2618;SDS011;1319;52.346;13.096;2022-10-15T04:29:15;26.13;;;15.97;;
2618;SDS011;1319;52.346;13.096;2022-10-15T04:31:41;26.20;;;16.43;;
2618;SDS011;1319;52.346;13.096;2022-10-15T04:34:06;24.50;;;15.57;;
2618;SDS011;1319;52.346;13.096;2022-10-15T04:36:31;25.90;;;15.47;;
2618;SDS011;1319;52.346;13.096;2022-10-15T04:38:57;23.83;;;15.47;;
2618;SDS011;1319;52.346;13.096;2022-10-15T04:41:22;25.10;;;15.70;;
2618;SDS011;1319;52.346;13.096;2022-10-15T04:43:47;25.93;;;16.10;;
2618;SDS011;1319;52.346;13.096;2022-10-15T04:46:13;28.00;;;16.20;;
2618;SDS011;1319;52.346;13.096;2022-10-15T04:48:38;25.77;;;15.57;;
2618;SDS011;1319;52.346;13.096;2022-10-15T04:53:38;26.87;;;15.90;;
2618;SDS011;1319;52.346;13.096;2022-10-15T04:56:04;30.57;;;16.43;;
2618;SDS011;1319;52.346;13.096;2022-10-15T04:58:30;27.20;;;16.87;;
2618;SDS011;1319;52.346;13.096;2022-10-15T05:00:58;26.30;;;16.30;;
2618;SDS011;1319;52.346;13.096;2022-10-15T05:03:23;25.47;;;15.30;;
2618;SDS011;1319;52.346;13.096;2022-10-15T05:05:48;30.67;;;17.60;;
2618;SDS011;1319;52.346;13.096;2022-10-15T05:08:13;26.83;;;15.83;;
2618;SDS011;1319;52.346;13.096;2022-10-15T05:10:39;32.17;;;16.77;;
2618;SDS011;1319;52.346;13.096;2022-10-15T05:13:04;29.73;;;17.03;;
2618;SDS011;1319;52.346;13.096;2022-10-15T05:15:29;29.47;;;16.33;;
2618;SDS011;1319;52.346;13.096;2022-10-15T05:17:54;30.97;;;16.20;;
2618;SDS011;1319;52.346;13.096;2022-10-15T05:20:20;29.17;;;16.20;;
2618;SDS011;1319;52.346;13.096;2022-10-15T05:22:45;27.80;;;16.47;;
2618;SDS011;1319;52.346;13.096;2022-10-15T05:25:10;30.43;;;17.70;;
2618;SDS011;1319;52.346;13.096;2022-10-15T05:27:36;29.50;;;17.13;;
2618;SDS011;1319;52.346;13.096;2022-10-15T05:30:01;28.97;;;17.03;;
2618;SDS011;1319;52.346;13.096;2022-10-15T05:32:26;28.77;;;16.90;;
2618;SDS011;1319;52.346;13.096;2022-10-15T05:34:51;28.93;;;16.80;;
2618;SDS011;1319;52.346;13.096;2022-10-15T05:37:17;27.97;;;16.90;;
2618;SDS011;1319;52.346;13.096;2022-10-15T05:39:42;38.83;;;18.57;;
2618;SDS011;1319;52.346;13.096;2022-10-15T05:42:08;41.27;;;18.10;;
2618;SDS011;1319;52.346;13.096;2022-10-15T05:44:34;39.50;;;18.83;;
2618;SDS011;1319;52.346;13.096;2022-10-15T05:46:59;40.20;;;18.47;;
2618;SDS011;1319;52.346;13.096;2022-10-15T05:49:24;30.63;;;17.03;;
2618;SDS011;1319;52.346;13.096;2022-10-15T05:51:49;32.47;;;17.47;;
2618;SDS011;1319;52.346;13.096;2022-10-15T05:54:15;30.80;;;17.70;;
2618;SDS011;1319;52.346;13.096;2022-10-15T05:56:40;25.63;;;16.47;;
2618;SDS011;1319;52.346;13.096;2022-10-15T05:59:05;30.73;;;17.80;;
2618;SDS011;1319;52.346;13.096;2022-10-15T06:01:30;28.47;;;15.70;;
2618;SDS011;1319;52.346;13.096;2022-10-15T06:03:56;29.43;;;16.50;;
2618;SDS011;1319;52.346;13.096;2022-10-15T06:06:22;27.57;;;16.23;;
2618;SDS011;1319;52.346;13.096;2022-10-15T06:08:47;30.73;;;16.83;;
2618;SDS011;1319;52.346;13.096;2022-10-15T06:11:13;27.23;;;16.57;;
2618;SDS011;1319;52.346;13.096;2022-10-15T06:13:39;27.13;;;15.70;;
2618;SDS011;1319;52.346;13.096;2022-10-15T06:16:04;28.00;;;17.50;;
2618;SDS011;1319;52.346;13.096;2022-10-15T06:18:30;26.90;;;16.90;;
2618;SDS011;1319;52.346;13.096;2022-10-15T06:20:55;27.83;;;16.37;;
2618;SDS011;1319;52.346;13.096;2022-10-15T06:23:21;31.60;;;17.47;;
2618;SDS011;1319;52.346;13.096;2022-10-15T06:25:48;27.50;;;16.27;;
2618;SDS011;1319;52.346;13.096;2022-10-15T06:28:13;30.67;;;17.77;;
2618;SDS011;1319;52.346;13.096;2022-10-15T06:30:38;28.33;;;17.07;;
2618;SDS011;1319;52.346;13.096;2022-10-15T06:33:04;25.67;;;17.23;;
2618;SDS011;1319;52.346;13.096;2022-10-15T06:35:29;33.57;;;17.67;;
2618;SDS011;1319;52.346;13.096;2022-10-15T06:37:58;30.13;;;17.10;;
2618;SDS011;1319;52.346;13.096;2022-10-15T06:40:23;29.73;;;17.17;;
2618;SDS011;1319;52.346;13.096;2022-10-15T06:42:49;29.40;;;16.87;;
2618;SDS011;1319;52.346;13.096;2022-10-15T06:45:14;25.57;;;16.03;;
2618;SDS011;1319;52.346;13.096;2022-10-15T06:47:39;25.47;;;16.47;;
2618;SDS011;1319;52.346;13.096;2022-10-15T06:50:05;29.70;;;17.07;;
2618;SDS011;1319;52.346;13.096;2022-10-15T06:52:31;28.43;;;17.23;;
2618;SDS011;1319;52.346;13.096;2022-10-15T06:54:57;27.97;;;16.67;;
2618;SDS011;1319;52.346;13.096;2022-10-15T06:57:22;21.57;;;15.17;;
2618;SDS011;1319;52.346;13.096;2022-10-15T06:59:49;21.47;;;14.43;;
2618;SDS011;1319;52.346;13.096;2022-10-15T07:02:14;25.07;;;15.97;;
2618;SDS011;1319;52.346;13.096;2022-10-15T07:04:41;29.40;;;16.50;;
2618;SDS011;1319;52.346;13.096;2022-10-15T07:07:06;27.40;;;17.17;;
2618;SDS011;1319;52.346;13.096;2022-10-15T07:09:32;29.20;;;18.07;;
2618;SDS011;1319;52.346;13.096;2022-10-15T07:11:59;23.57;;;15.27;;
2618;SDS011;1319;52.346;13.096;2022-10-15T07:14:24;25.47;;;16.17;;
2618;SDS011;1319;52.346;13.096;2022-10-15T07:16:49;23.63;;;16.67;;
2618;SDS011;1319;52.346;13.096;2022-10-15T07:19:15;29.40;;;16.97;;
2618;SDS011;1319;52.346;13.096;2022-10-15T07:21:40;25.57;;;17.27;;
2618;SDS011;1319;52.346;13.096;2022-10-15T07:24:05;24.63;;;16.03;;
2618;SDS011;1319;52.346;13.096;2022-10-15T07:26:30;24.03;;;15.70;;
2618;SDS011;1319;52.346;13.096;2022-10-15T07:28:56;21.63;;;15.57;;
2618;SDS011;1319;52.346;13.096;2022-10-15T07:31:22;24.57;;;15.87;;
2618;SDS011;1319;52.346;13.096;2022-10-15T07:33:47;23.77;;;16.07;;
2618;SDS011;1319;52.346;13.096;2022-10-15T07:36:12;21.03;;;15.40;;
2618;SDS011;1319;52.346;13.096;2022-10-15T07:38:38;19.87;;;13.83;;
2618;SDS011;1319;52.346;13.096;2022-10-15T07:41:07;20.87;;;13.67;;
2618;SDS011;1319;52.346;13.096;2022-10-15T07:43:33;19.43;;;12.97;;
2618;SDS011;1319;52.346;13.096;2022-10-15T07:45:58;16.03;;;12.13;;
2618;SDS011;1319;52.346;13.096;2022-10-15T07:48:23;18.23;;;11.83;;
2618;SDS011;1319;52.346;13.096;2022-10-15T07:50:53;19.47;;;11.90;;
2618;SDS011;1319;52.346;13.096;2022-10-15T07:53:18;18.37;;;11.93;;
2618;SDS011;1319;52.346;13.096;2022-10-15T07:55:43;13.63;;;10.77;;
2618;SDS011;1319;52.346;13.096;2022-10-15T07:58:08;16.53;;;10.63;;
2618;SDS011;1319;52.346;13.096;2022-10-15T08:00:34;14.03;;;9.60;;
2618;SDS011;1319;52.346;13.096;2022-10-15T08:02:59;10.57;;;9.13;;
2618;SDS011;1319;52.346;13.096;2022-10-15T08:05:24;12.73;;;8.87;;
2618;SDS011;1319;52.346;13.096;2022-10-15T08:07:50;10.00;;;8.53;;
2618;SDS011;1319;52.346;13.096;2022-10-15T08:10:15;13.70;;;8.47;;
2618;SDS011;1319;52.346;13.096;2022-10-15T08:12:40;10.37;;;7.73;;
2618;SDS011;1319;52.346;13.096;2022-10-15T08:15:06;8.53;;;7.57;;
2618;SDS011;1319;52.346;13.096;2022-10-15T08:17:31;10.60;;;7.00;;
2618;SDS011;1319;52.346;13.096;2022-10-15T08:19:56;8.83;;;7.60;;
2618;SDS011;1319;52.346;13.096;2022-10-15T08:22:22;7.07;;;6.37;;
2618;SDS011;1319;52.346;13.096;2022-10-15T08:24:47;8.43;;;6.97;;
2618;SDS011;1319;52.346;13.096;2022-10-15T08:27:12;8.00;;;7.20;;
2618;SDS011;1319;52.346;13.096;2022-10-15T08:29:38;9.33;;;6.93;;
2618;SDS011;1319;52.346;13.096;2022-10-15T08:32:03;7.67;;;6.27;;
2618;SDS011;1319;52.346;13.096;2022-10-15T08:34:28;8.77;;;7.37;;
2618;SDS011;1319;52.346;13.096;2022-10-15T08:36:53;9.17;;;7.00;;
2618;SDS011;1319;52.346;13.096;2022-10-15T08:39:19;9.70;;;6.83;;
2618;SDS011;1319;52.346;13.096;2022-10-15T08:41:45;10.23;;;7.00;;
2618;SDS011;1319;52.346;13.096;2022-10-15T08:44:29;9.33;;;6.70;;
2618;SDS011;1319;52.346;13.096;2022-10-15T08:47:01;7.57;;;6.57;;
2618;SDS011;1319;52.346;13.096;2022-10-15T08:49:48;9.37;;;6.73;;
2618;SDS011;1319;52.346;13.096;2022-10-15T08:52:21;7.97;;;6.93;;
2618;SDS011;1319;52.346;13.096;2022-10-15T08:54:48;8.50;;;6.33;;
2618;SDS011;1319;52.346;13.096;2022-10-15T08:57:35;8.60;;;6.77;;
2618;SDS011;1319;52.346;13.096;2022-10-15T09:00:13;8.93;;;6.60;;
2618;SDS011;1319;52.346;13.096;2022-10-15T09:02:51;7.20;;;6.23;;
2618;SDS011;1319;52.346;13.096;2022-10-15T09:05:25;6.63;;;5.93;;
2618;SDS011;1319;52.346;13.096;2022-10-15T09:10:35;8.23;;;6.00;;
2618;SDS011;1319;52.346;13.096;2022-10-15T09:13:06;7.13;;;6.13;;
2618;SDS011;1319;52.346;13.096;2022-10-15T09:15:36;7.90;;;6.47;;
2618;SDS011;1319;52.346;13.096;2022-10-15T09:18:07;8.47;;;6.33;;
2618;SDS011;1319;52.346;13.096;2022-10-15T09:20:35;6.30;;;5.70;;
2618;SDS011;1319;52.346;13.096;2022-10-15T09:23:01;6.30;;;5.70;;
2618;SDS011;1319;52.346;13.096;2022-10-15T09:25:30;6.67;;;6.07;;
2618;SDS011;1319;52.346;13.096;2022-10-15T09:27:56;9.30;;;6.43;;
2618;SDS011;1319;52.346;13.096;2022-10-15T09:35:34;9.90;;;6.67;;
2618;SDS011;1319;52.346;13.096;2022-10-15T09:38:07;11.83;;;7.00;;
2618;SDS011;1319;52.346;13.096;2022-10-15T09:40:51;7.50;;;5.97;;
2618;SDS011;1319;52.346;13.096;2022-10-15T09:43:25;7.23;;;6.50;;
2618;SDS011;1319;52.346;13.096;2022-10-15T09:45:54;10.20;;;6.40;;
2618;SDS011;1319;52.346;13.096;2022-10-15T09:48:20;9.90;;;6.03;;
2618;SDS011;1319;52.346;13.096;2022-10-15T09:50:49;6.27;;;5.63;;
2618;SDS011;1319;52.346;13.096;2022-10-15T09:53:20;8.13;;;6.17;;
2618;SDS011;1319;52.346;13.096;2022-10-15T09:55:53;6.50;;;5.90;;
2618;SDS011;1319;52.346;13.096;2022-10-15T09:58:31;8.40;;;6.13;;
2618;SDS011;1319;52.346;13.096;2022-10-15T10:00:59;8.97;;;6.00;;
2618;SDS011;1319;52.346;13.096;2022-10-15T10:03:26;6.80;;;5.83;;
2618;SDS011;1319;52.346;13.096;2022-10-15T10:06:25;6.47;;;5.73;;
2618;SDS011;1319;52.346;13.096;2022-10-15T10:08:50;9.07;;;5.77;;
2618;SDS011;1319;52.346;13.096;2022-10-15T10:11:16;6.40;;;5.37;;
2618;SDS011;1319;52.346;13.096;2022-10-15T10:16:13;7.53;;;5.53;;
2618;SDS011;1319;52.346;13.096;2022-10-15T10:18:39;9.23;;;6.07;;
2618;SDS011;1319;52.346;13.096;2022-10-15T10:21:05;6.13;;;5.53;;
2618;SDS011;1319;52.346;13.096;2022-10-15T10:23:43;8.30;;;5.27;;
2618;SDS011;1319;52.346;13.096;2022-10-15T10:26:09;6.17;;;5.57;;
2618;SDS011;1319;52.346;13.096;2022-10-15T10:28:51;5.57;;;5.07;;
2618;SDS011;1319;52.346;13.096;2022-10-15T10:31:17;7.67;;;5.10;;
2618;SDS011;1319;52.346;13.096;2022-10-15T10:33:50;5.80;;;4.93;;
2618;SDS011;1319;52.346;13.096;2022-10-15T10:36:29;5.80;;;5.20;;
2618;SDS011;1319;52.346;13.096;2022-10-15T10:41:20;5.60;;;5.10;;
2618;SDS011;1319;52.346;13.096;2022-10-15T10:43:52;6.30;;;5.70;;
2618;SDS011;1319;52.346;13.096;2022-10-15T10:46:18;6.47;;;5.30;;
2618;SDS011;1319;52.346;13.096;2022-10-15T10:48:45;6.33;;;5.67;;
2618;SDS011;1319;52.346;13.096;2022-10-15T10:51:15;7.83;;;5.43;;
2618;SDS011;1319;52.346;13.096;2022-10-15T10:56:21;7.60;;;6.23;;
2618;SDS011;1319;52.346;13.096;2022-10-15T10:58:47;8.43;;;5.70;;
2618;SDS011;1319;52.346;13.096;2022-10-15T11:01:15;7.17;;;6.47;;
2618;SDS011;1319;52.346;13.096;2022-10-15T11:03:42;8.10;;;6.13;;
2618;SDS011;1319;52.346;13.096;2022-10-15T11:08:45;7.03;;;6.33;;
2618;SDS011;1319;52.346;13.096;2022-10-15T11:13:53;8.07;;;6.13;;
2618;SDS011;1319;52.346;13.096;2022-10-15T11:24:08;5.55;;;4.13;;
2618;SDS011;1319;52.346;13.096;2022-10-15T11:34:08;4.60;;;4.18;;
2618;SDS011;1319;52.346;13.096;2022-10-15T11:42:12;6.30;;;4.68;;
2618;SDS011;1319;52.346;13.096;2022-10-15T11:52:46;4.80;;;4.40;;
2618;SDS011;1319;52.346;13.096;2022-10-15T11:55:19;4.00;;;3.70;;
2618;SDS011;1319;52.346;13.096;2022-10-15T11:57:46;4.20;;;3.80;;
2618;SDS011;1319;52.346;13.096;2022-10-15T12:02:38;4.40;;;4.03;;
2618;SDS011;1319;52.346;13.096;2022-10-15T12:05:04;4.10;;;3.80;;
2618;SDS011;1319;52.346;13.096;2022-10-15T12:09:58;3.70;;;3.40;;
2618;SDS011;1319;52.346;13.096;2022-10-15T12:15:03;3.20;;;3.00;;
2618;SDS011;1319;52.346;13.096;2022-10-15T12:20:15;4.95;;;2.97;;
2618;SDS011;1319;52.346;13.096;2022-10-15T12:28:11;2.50;;;2.40;;
2618;SDS011;1319;52.346;13.096;2022-10-15T12:30:37;3.20;;;2.25;;
2618;SDS011;1319;52.346;13.096;2022-10-15T12:33:19;3.10;;;2.28;;
2618;SDS011;1319;52.346;13.096;2022-10-15T12:35:53;4.95;;;2.60;;
2618;SDS011;1319;52.346;13.096;2022-10-15T12:38:20;2.53;;;2.43;;
2618;SDS011;1319;52.346;13.096;2022-10-15T12:40:54;2.40;;;2.20;;
2618;SDS011;1319;52.346;13.096;2022-10-15T12:43:20;2.77;;;2.10;;
2618;SDS011;1319;52.346;13.096;2022-10-15T12:45:50;2.33;;;2.23;;
2618;SDS011;1319;52.346;13.096;2022-10-15T12:48:17;2.30;;;2.20;;
2618;SDS011;1319;52.346;13.096;2022-10-15T12:50:43;4.23;;;2.37;;
2618;SDS011;1319;52.346;13.096;2022-10-15T12:55:40;2.53;;;2.43;;
2618;SDS011;1319;52.346;13.096;2022-10-15T13:00:50;3.67;;;2.97;;
2618;SDS011;1319;52.346;13.096;2022-10-15T13:03:16;2.43;;;2.33;;
2618;SDS011;1319;52.346;13.096;2022-10-15T13:05:42;3.20;;;2.50;;
2618;SDS011;1319;52.346;13.096;2022-10-15T13:08:12;3.33;;;2.60;;
2618;SDS011;1319;52.346;13.096;2022-10-15T13:10:40;2.50;;;2.30;;
2618;SDS011;1319;52.346;13.096;2022-10-15T13:13:13;4.20;;;3.33;;
2618;SDS011;1319;52.346;13.096;2022-10-15T13:15:39;3.97;;;2.93;;
2618;SDS011;1319;52.346;13.096;2022-10-15T13:18:06;3.27;;;3.07;;
2618;SDS011;1319;52.346;13.096;2022-10-15T13:20:34;3.27;;;2.97;;
2618;SDS011;1319;52.346;13.096;2022-10-15T13:23:07;4.53;;;3.17;;
2618;SDS011;1319;52.346;13.096;2022-10-15T13:25:33;2.93;;;2.70;;
2618;SDS011;1319;52.346;13.096;2022-10-15T13:27:58;3.57;;;2.70;;
2618;SDS011;1319;52.346;13.096;2022-10-15T13:30:23;4.70;;;2.43;;
2618;SDS011;1319;52.346;13.096;2022-10-15T13:32:49;3.10;;;2.77;;
2618;SDS011;1319;52.346;13.096;2022-10-15T13:35:35;3.07;;;2.80;;
2618;SDS011;1319;52.346;13.096;2022-10-15T13:38:02;2.70;;;2.60;;
2618;SDS011;1319;52.346;13.096;2022-10-15T13:40:28;4.25;;;2.63;;
2618;SDS011;1319;52.346;13.096;2022-10-15T13:43:00;2.20;;;2.10;;
2618;SDS011;1319;52.346;13.096;2022-10-15T13:45:26;4.60;;;2.50;;
2618;SDS011;1319;52.346;13.096;2022-10-15T13:47:52;2.10;;;2.00;;
2618;SDS011;1319;52.346;13.096;2022-10-15T13:50:22;2.93;;;2.00;;
2618;SDS011;1319;52.346;13.096;2022-10-15T13:52:52;2.37;;;2.17;;
2618;SDS011;1319;52.346;13.096;2022-10-15T13:55:22;2.17;;;2.00;;
2618;SDS011;1319;52.346;13.096;2022-10-15T13:57:48;2.08;;;1.98;;
2618;SDS011;1319;52.346;13.096;2022-10-15T14:00:21;2.90;;;2.05;;
2618;SDS011;1319;52.346;13.096;2022-10-15T14:03:04;1.95;;;1.67;;
2618;SDS011;1319;52.346;13.096;2022-10-15T14:05:30;1.83;;;1.73;;
2618;SDS011;1319;52.346;13.096;2022-10-15T14:07:55;2.10;;;2.05;;
2618;SDS011;1319;52.346;13.096;2022-10-15T14:10:20;2.65;;;2.20;;
2618;SDS011;1319;52.346;13.096;2022-10-15T14:12:45;1.88;;;1.80;;
2618;SDS011;1319;52.346;13.096;2022-10-15T14:17:59;1.98;;;1.80;;
2618;SDS011;1319;52.346;13.096;2022-10-15T14:20:25;5.15;;;1.65;;
2618;SDS011;1319;52.346;13.096;2022-10-15T14:22:50;1.50;;;1.50;;
2618;SDS011;1319;52.346;13.096;2022-10-15T14:25:16;1.52;;;1.50;;
2618;SDS011;1319;52.346;13.096;2022-10-15T14:27:46;1.50;;;1.40;;
2618;SDS011;1319;52.346;13.096;2022-10-15T14:30:19;1.63;;;1.33;;
2618;SDS011;1319;52.346;13.096;2022-10-15T14:32:47;1.83;;;1.60;;
2618;SDS011;1319;52.346;13.096;2022-10-15T14:35:33;1.45;;;1.45;;
2618;SDS011;1319;52.346;13.096;2022-10-15T14:40:30;3.72;;;1.30;;
2618;SDS011;1319;52.346;13.096;2022-10-15T14:43:15;1.95;;;1.55;;
2618;SDS011;1319;52.346;13.096;2022-10-15T14:45:42;1.50;;;1.50;;
2618;SDS011;1319;52.346;13.096;2022-10-15T14:48:19;3.17;;;1.77;;
2618;SDS011;1319;52.346;13.096;2022-10-15T14:50:44;2.07;;;1.63;;
2618;SDS011;1319;52.346;13.096;2022-10-15T14:53:21;1.40;;;1.40;;
2618;SDS011;1319;52.346;13.096;2022-10-15T14:55:52;2.97;;;1.50;;
2618;SDS011;1319;52.346;13.096;2022-10-15T14:58:20;1.40;;;1.40;;
2618;SDS011;1319;52.346;13.096;2022-10-15T15:00:47;1.50;;;1.40;;
2618;SDS011;1319;52.346;13.096;2022-10-15T15:03:15;2.33;;;1.77;;
2618;SDS011;1319;52.346;13.096;2022-10-15T15:05:48;1.60;;;1.50;;
2618;SDS011;1319;52.346;13.096;2022-10-15T15:08:13;2.50;;;1.60;;
2618;SDS011;1319;52.346;13.096;2022-10-15T15:10:38;1.50;;;1.50;;
2618;SDS011;1319;52.346;13.096;2022-10-15T15:13:04;2.37;;;1.60;;
2618;SDS011;1319;52.346;13.096;2022-10-15T15:15:29;1.50;;;1.50;;
2618;SDS011;1319;52.346;13.096;2022-10-15T15:17:54;1.80;;;1.53;;
2618;SDS011;1319;52.346;13.096;2022-10-15T15:20:20;1.70;;;1.60;;
2618;SDS011;1319;52.346;13.096;2022-10-15T15:22:50;3.47;;;1.70;;
2618;SDS011;1319;52.346;13.096;2022-10-15T15:27:41;4.03;;;1.97;;
2618;SDS011;1319;52.346;13.096;2022-10-15T15:30:06;1.57;;;1.53;;
2618;SDS011;1319;52.346;13.096;2022-10-15T15:32:32;1.90;;;1.80;;
2618;SDS011;1319;52.346;13.096;2022-10-15T15:34:57;2.70;;;2.00;;
2618;SDS011;1319;52.346;13.096;2022-10-15T15:37:24;3.47;;;1.97;;
2618;SDS011;1319;52.346;13.096;2022-10-15T15:39:49;3.87;;;2.20;;
2618;SDS011;1319;52.346;13.096;2022-10-15T15:42:19;4.70;;;2.60;;
2618;SDS011;1319;52.346;13.096;2022-10-15T15:44:44;7.87;;;3.57;;
2618;SDS011;1319;52.346;13.096;2022-10-15T15:47:10;6.83;;;4.07;;
2618;SDS011;1319;52.346;13.096;2022-10-15T15:49:35;6.37;;;3.67;;
2618;SDS011;1319;52.346;13.096;2022-10-15T15:52:01;4.50;;;3.20;;
2618;SDS011;1319;52.346;13.096;2022-10-15T15:54:27;4.77;;;3.60;;
2618;SDS011;1319;52.346;13.096;2022-10-15T15:56:52;6.33;;;3.67;;
2618;SDS011;1319;52.346;13.096;2022-10-15T15:59:17;5.10;;;4.03;;
2618;SDS011;1319;52.346;13.096;2022-10-15T16:01:43;6.47;;;3.67;;
2618;SDS011;1319;52.346;13.096;2022-10-15T16:04:09;2.93;;;2.27;;
2618;SDS011;1319;52.346;13.096;2022-10-15T16:06:36;6.73;;;4.17;;
2618;SDS011;1319;52.346;13.096;2022-10-15T16:09:02;7.73;;;3.90;;
2618;SDS011;1319;52.346;13.096;2022-10-15T16:11:29;5.17;;;4.60;;
2618;SDS011;1319;52.346;13.096;2022-10-15T16:13:54;10.70;;;5.10;;
2618;SDS011;1319;52.346;13.096;2022-10-15T16:16:20;11.07;;;5.43;;
2618;SDS011;1319;52.346;13.096;2022-10-15T16:18:45;6.87;;;5.40;;
2618;SDS011;1319;52.346;13.096;2022-10-15T16:21:10;6.97;;;4.97;;
2618;SDS011;1319;52.346;13.096;2022-10-15T16:23:36;7.77;;;4.70;;
2618;SDS011;1319;52.346;13.096;2022-10-15T16:26:01;8.20;;;4.87;;
2618;SDS011;1319;52.346;13.096;2022-10-15T16:28:26;5.50;;;4.97;;
2618;SDS011;1319;52.346;13.096;2022-10-15T16:30:51;7.87;;;5.00;;
2618;SDS011;1319;52.346;13.096;2022-10-15T16:33:17;6.53;;;5.23;;
2618;SDS011;1319;52.346;13.096;2022-10-15T16:35:42;5.80;;;4.63;;
2618;SDS011;1319;52.346;13.096;2022-10-15T16:38:07;10.17;;;4.70;;